createdAt,value
2022-11-26T00:01:00.000Z,0
2022-11-26T00:02:16.000Z,0
2022-11-26T00:03:32.000Z,0
2022-11-26T00:04:48.000Z,0
2022-11-26T00:06:05.000Z,0
2022-11-26T00:08:36.000Z,0
2022-11-26T00:09:52.000Z,0
2022-11-26T00:11:08.000Z,0
2022-11-26T00:12:25.000Z,0
2022-11-26T00:13:41.000Z,0
2022-11-26T00:14:57.000Z,0
2022-11-26T00:16:13.000Z,0
2022-11-26T00:17:28.000Z,0
2022-11-26T00:18:44.000Z,0
2022-11-26T00:21:16.000Z,0
2022-11-26T00:22:32.000Z,0
2022-11-26T00:23:48.000Z,0
2022-11-26T00:25:04.000Z,0
2022-11-26T00:26:19.000Z,0
2022-11-26T00:27:35.000Z,0
2022-11-26T00:28:51.000Z,0
2022-11-26T00:30:07.000Z,0
2022-11-26T00:31:24.000Z,0
2022-11-26T00:32:40.000Z,0
2022-11-26T00:33:56.000Z,0
2022-11-26T00:35:12.000Z,0
2022-11-26T00:36:28.000Z,0
2022-11-26T00:37:45.000Z,0
2022-11-26T00:39:01.000Z,0
2022-11-26T00:40:17.000Z,0
2022-11-26T00:41:33.000Z,0
2022-11-26T00:42:48.000Z,0
2022-11-26T00:44:05.000Z,0
2022-11-26T00:46:37.000Z,0
2022-11-26T00:47:53.000Z,0
2022-11-26T00:49:09.000Z,0
2022-11-26T00:50:25.000Z,0
2022-11-26T00:52:58.000Z,0
2022-11-26T00:54:13.000Z,0
2022-11-26T00:55:28.000Z,0
2022-11-26T00:56:44.000Z,0
2022-11-26T00:57:59.000Z,0
2022-11-26T00:59:15.000Z,0
2022-11-26T01:00:31.000Z,0
2022-11-26T01:01:47.000Z,0
2022-11-26T01:03:04.000Z,0
2022-11-26T01:04:20.000Z,0
2022-11-26T01:05:36.000Z,0
2022-11-26T01:06:52.000Z,0
2022-11-26T01:08:08.000Z,0
2022-11-26T01:09:24.000Z,0
2022-11-26T01:10:41.000Z,0
2022-11-26T01:11:57.000Z,0
2022-11-26T01:13:13.000Z,0
2022-11-26T01:14:28.000Z,0
2022-11-26T01:15:44.000Z,0
2022-11-26T01:17:01.000Z,0
2022-11-26T01:18:17.000Z,0
2022-11-26T01:19:33.000Z,0
2022-11-26T01:20:49.000Z,0
2022-11-26T01:22:05.000Z,0
2022-11-26T01:24:37.000Z,0
2022-11-26T01:25:52.000Z,0
2022-11-26T01:27:07.000Z,0
2022-11-26T01:28:23.000Z,0
2022-11-26T01:29:39.000Z,0
2022-11-26T01:30:54.000Z,0
2022-11-26T01:32:10.000Z,0
2022-11-26T01:33:26.000Z,0
2022-11-26T01:34:42.000Z,0
2022-11-26T01:35:59.000Z,0
2022-11-26T01:37:15.000Z,0
2022-11-26T01:38:31.000Z,0
2022-11-26T01:39:47.000Z,0
2022-11-26T01:41:03.000Z,0
2022-11-26T01:42:20.000Z,0
2022-11-26T01:43:36.000Z,0
2022-11-26T01:46:08.000Z,0
2022-11-26T01:47:23.000Z,0
2022-11-26T01:49:56.000Z,0
2022-11-26T01:51:11.000Z,0
2022-11-26T01:52:26.000Z,0
2022-11-26T01:53:42.000Z,0
2022-11-26T01:54:59.000Z,0
2022-11-26T01:56:15.000Z,0
2022-11-26T01:57:31.000Z,0
2022-11-26T01:58:47.000Z,0
2022-11-26T02:00:03.000Z,0
2022-11-26T02:01:20.000Z,0
2022-11-26T02:02:36.000Z,0
2022-11-26T02:03:52.000Z,0
2022-11-26T02:05:07.000Z,0
2022-11-26T02:07:39.000Z,0
2022-11-26T02:08:55.000Z,0
2022-11-26T02:10:11.000Z,0
2022-11-26T02:11:27.000Z,0
2022-11-26T02:12:43.000Z,0
2022-11-26T02:14:00.000Z,0
2022-11-26T02:15:16.000Z,0
2022-11-26T02:16:32.000Z,0
2022-11-26T02:17:48.000Z,0
2022-11-26T02:19:04.000Z,0
2022-11-26T02:20:21.000Z,0
2022-11-26T02:21:37.000Z,0
2022-11-26T02:22:52.000Z,0
2022-11-26T02:24:08.000Z,0
2022-11-26T02:25:24.000Z,0
2022-11-26T02:27:57.000Z,0
2022-11-26T02:29:13.000Z,0
2022-11-26T02:30:29.000Z,0
2022-11-26T02:31:45.000Z,0
2022-11-26T02:33:02.000Z,0
2022-11-26T02:34:17.000Z,0
2022-11-26T02:35:32.000Z,0
2022-11-26T02:36:48.000Z,0
2022-11-26T02:38:03.000Z,0
2022-11-26T02:39:19.000Z,0
2022-11-26T02:40:35.000Z,0
2022-11-26T02:41:51.000Z,0
2022-11-26T02:43:07.000Z,0
2022-11-26T02:44:23.000Z,0
2022-11-26T02:45:40.000Z,0
2022-11-26T02:46:56.000Z,0
2022-11-26T02:48:12.000Z,0
2022-11-26T02:49:28.000Z,0
2022-11-26T02:50:44.000Z,0
2022-11-26T02:52:00.000Z,0
2022-11-26T02:53:17.000Z,0
2022-11-26T02:54:33.000Z,0
2022-11-26T02:55:48.000Z,0
2022-11-26T02:57:04.000Z,0
2022-11-26T02:58:20.000Z,0
2022-11-26T02:59:37.000Z,0
2022-11-26T03:00:53.000Z,0
2022-11-26T03:02:09.000Z,0
2022-11-26T03:03:25.000Z,0
2022-11-26T03:04:40.000Z,0
2022-11-26T03:05:56.000Z,0
2022-11-26T03:07:12.000Z,0
2022-11-26T03:08:28.000Z,0
2022-11-26T03:09:44.000Z,0
2022-11-26T03:10:59.000Z,0
2022-11-26T03:12:15.000Z,0
2022-11-26T03:13:31.000Z,0
2022-11-26T03:14:47.000Z,0
2022-11-26T03:16:03.000Z,0
2022-11-26T03:17:19.000Z,0
2022-11-26T03:18:36.000Z,0
2022-11-26T03:19:52.000Z,0
2022-11-26T03:21:08.000Z,0
2022-11-26T03:22:24.000Z,0
2022-11-26T03:23:40.000Z,0
2022-11-26T03:24:57.000Z,0
2022-11-26T03:26:13.000Z,0
2022-11-26T03:27:29.000Z,0
2022-11-26T03:28:44.000Z,0
2022-11-26T03:31:17.000Z,0
2022-11-26T03:32:33.000Z,0
2022-11-26T03:33:49.000Z,0
2022-11-26T03:35:05.000Z,0
2022-11-26T03:36:20.000Z,0
2022-11-26T03:37:37.000Z,0
2022-11-26T03:38:52.000Z,0
2022-11-26T03:40:07.000Z,0
2022-11-26T03:41:22.000Z,0
2022-11-26T03:42:37.000Z,0
2022-11-26T03:43:54.000Z,0
2022-11-26T03:45:10.000Z,0
2022-11-26T03:46:26.000Z,0
2022-11-26T03:47:42.000Z,0
2022-11-26T03:48:58.000Z,0
2022-11-26T03:50:15.000Z,0
2022-11-26T03:51:31.000Z,0
2022-11-26T03:52:47.000Z,0
2022-11-26T03:54:03.000Z,0
2022-11-26T03:56:36.000Z,0
2022-11-26T03:57:52.000Z,0
2022-11-26T03:59:07.000Z,0
2022-11-26T04:00:23.000Z,0
2022-11-26T04:01:39.000Z,0
2022-11-26T04:02:56.000Z,0
2022-11-26T04:04:12.000Z,0
2022-11-26T04:05:28.000Z,0
2022-11-26T04:06:44.000Z,0
2022-11-26T04:09:17.000Z,0
2022-11-26T04:10:32.000Z,0
2022-11-26T04:11:47.000Z,0
2022-11-26T04:13:02.000Z,0
2022-11-26T04:14:17.000Z,0
2022-11-26T04:15:34.000Z,0
2022-11-26T04:16:50.000Z,0
2022-11-26T04:18:06.000Z,0
2022-11-26T04:19:22.000Z,0
2022-11-26T04:20:38.000Z,0
2022-11-26T04:21:55.000Z,0
2022-11-26T04:23:11.000Z,0
2022-11-26T04:24:27.000Z,0
2022-11-26T04:25:43.000Z,0
2022-11-26T04:26:59.000Z,0
2022-11-26T04:28:16.000Z,0
2022-11-26T04:29:32.000Z,0
2022-11-26T04:30:47.000Z,0
2022-11-26T04:32:03.000Z,0
2022-11-26T04:34:36.000Z,0
2022-11-26T04:35:52.000Z,0
2022-11-26T04:37:08.000Z,0
2022-11-26T04:38:24.000Z,0
2022-11-26T04:39:40.000Z,0
2022-11-26T04:40:56.000Z,0
2022-11-26T04:42:11.000Z,0
2022-11-26T04:43:27.000Z,0
2022-11-26T04:44:43.000Z,0
2022-11-26T04:45:59.000Z,0
2022-11-26T04:47:16.000Z,0
2022-11-26T04:48:32.000Z,0
2022-11-26T04:49:48.000Z,0
2022-11-26T04:51:04.000Z,0
2022-11-26T04:52:20.000Z,0
2022-11-26T04:53:36.000Z,0
2022-11-26T04:54:53.000Z,0
2022-11-26T04:56:09.000Z,0
2022-11-26T04:57:25.000Z,0
2022-11-26T04:58:40.000Z,0
2022-11-26T04:59:56.000Z,0
2022-11-26T05:01:13.000Z,0
2022-11-26T05:02:29.000Z,0
2022-11-26T05:03:45.000Z,0
2022-11-26T05:05:01.000Z,0
2022-11-26T05:06:17.000Z,0
2022-11-26T05:07:33.000Z,0
2022-11-26T05:08:48.000Z,0
2022-11-26T05:10:03.000Z,0
2022-11-26T05:12:35.000Z,0
2022-11-26T05:13:51.000Z,0
2022-11-26T05:16:23.000Z,0
2022-11-26T05:17:39.000Z,0
2022-11-26T05:18:55.000Z,0
2022-11-26T05:20:12.000Z,0
2022-11-26T05:21:28.000Z,0
2022-11-26T05:22:44.000Z,0
2022-11-26T05:24:00.000Z,0
2022-11-26T05:25:16.000Z,0
2022-11-26T05:26:33.000Z,0
2022-11-26T05:27:48.000Z,0
2022-11-26T05:29:04.000Z,0
2022-11-26T05:30:20.000Z,0
2022-11-26T05:32:53.000Z,0
2022-11-26T05:34:08.000Z,0
2022-11-26T05:35:23.000Z,0
2022-11-26T05:37:54.000Z,0
2022-11-26T05:39:10.000Z,0
2022-11-26T05:40:25.000Z,0
2022-11-26T05:41:41.000Z,0
2022-11-26T05:42:57.000Z,0
2022-11-26T05:44:13.000Z,0
2022-11-26T05:45:30.000Z,0
2022-11-26T05:46:46.000Z,0
2022-11-26T05:48:02.000Z,0
2022-11-26T05:50:34.000Z,0
2022-11-26T05:51:51.000Z,0
2022-11-26T05:53:07.000Z,0
2022-11-26T05:54:23.000Z,0
2022-11-26T05:55:39.000Z,0
2022-11-26T05:56:54.000Z,0
2022-11-26T05:58:11.000Z,0
2022-11-26T05:59:27.000Z,0
2022-11-26T06:00:43.000Z,0
2022-11-26T06:01:59.000Z,0
2022-11-26T06:03:15.000Z,0
2022-11-26T06:04:32.000Z,0
2022-11-26T06:05:48.000Z,0
2022-11-26T06:07:03.000Z,0
2022-11-26T06:08:18.000Z,0
2022-11-26T06:09:34.000Z,0
2022-11-26T06:10:50.000Z,0
2022-11-26T06:12:05.000Z,0
2022-11-26T06:13:21.000Z,0
2022-11-26T06:15:53.000Z,0
2022-11-26T06:17:10.000Z,0
2022-11-26T06:18:26.000Z,0
2022-11-26T06:19:42.000Z,0
2022-11-26T06:20:58.000Z,0
2022-11-26T06:22:14.000Z,0
2022-11-26T06:23:31.000Z,0
2022-11-26T06:24:47.000Z,0
2022-11-26T06:26:03.000Z,0
2022-11-26T06:27:19.000Z,0
2022-11-26T06:28:34.000Z,0
2022-11-26T06:29:51.000Z,0
2022-11-26T06:31:07.000Z,0
2022-11-26T06:32:23.000Z,0
2022-11-26T06:33:39.000Z,4
2022-11-26T06:34:55.000Z,0
2022-11-26T06:36:12.000Z,4
2022-11-26T06:37:28.000Z,0
2022-11-26T06:38:44.000Z,4
2022-11-26T06:41:15.000Z,4
2022-11-26T06:42:31.000Z,4
2022-11-26T06:43:46.000Z,4
2022-11-26T06:45:01.000Z,8
2022-11-26T06:46:16.000Z,8
2022-11-26T06:48:49.000Z,12
2022-11-26T06:50:05.000Z,16
2022-11-26T06:51:21.000Z,20
2022-11-26T06:53:53.000Z,32
2022-11-26T06:56:26.000Z,32
2022-11-26T06:57:42.000Z,44
2022-11-26T06:58:58.000Z,44
2022-11-26T07:00:14.000Z,48
2022-11-26T07:01:31.000Z,56
2022-11-26T07:02:46.000Z,60
2022-11-26T07:04:01.000Z,64
2022-11-26T07:05:17.000Z,80
2022-11-26T07:06:33.000Z,100
2022-11-26T07:07:50.000Z,112
2022-11-26T07:09:06.000Z,120
2022-11-26T07:10:22.000Z,152
2022-11-26T07:12:54.000Z,180
2022-11-26T07:14:11.000Z,176
2022-11-26T07:15:27.000Z,208
2022-11-26T07:16:43.000Z,196
2022-11-26T07:17:59.000Z,216
2022-11-26T07:19:15.000Z,240
2022-11-26T07:20:31.000Z,244
2022-11-26T07:21:47.000Z,272
2022-11-26T07:23:03.000Z,268
2022-11-26T07:24:19.000Z,296
2022-11-26T07:25:35.000Z,320
2022-11-26T07:26:51.000Z,356
2022-11-26T07:28:08.000Z,360
2022-11-26T07:29:24.000Z,388
2022-11-26T07:31:55.000Z,468
2022-11-26T07:33:10.000Z,512
2022-11-26T07:34:26.000Z,524
2022-11-26T07:35:42.000Z,624
2022-11-26T07:36:57.000Z,684
2022-11-26T07:38:12.000Z,728
2022-11-26T07:39:29.000Z,792
2022-11-26T07:40:45.000Z,832
2022-11-26T07:42:01.000Z,860
2022-11-26T07:43:17.000Z,880
2022-11-26T07:44:33.000Z,940
2022-11-26T07:45:49.000Z,984
2022-11-26T07:47:06.000Z,1188
2022-11-26T07:48:22.000Z,1100
2022-11-26T07:49:38.000Z,1276
2022-11-26T07:50:53.000Z,1320
2022-11-26T07:52:09.000Z,1432
2022-11-26T07:54:41.000Z,1872
2022-11-26T07:57:13.000Z,2356
2022-11-26T07:58:29.000Z,2544
2022-11-26T07:59:46.000Z,2816
2022-11-26T08:01:02.000Z,3416
2022-11-26T08:02:18.000Z,3888
2022-11-26T08:03:34.000Z,4472
2022-11-26T08:04:50.000Z,5108
2022-11-26T08:06:07.000Z,5696
2022-11-26T08:07:22.000Z,5676
2022-11-26T08:08:37.000Z,6028
2022-11-26T08:09:53.000Z,6412
2022-11-26T08:11:09.000Z,5948
2022-11-26T08:12:26.000Z,5972
2022-11-26T08:13:42.000Z,6196
2022-11-26T08:14:58.000Z,6248
2022-11-26T08:16:14.000Z,6684
2022-11-26T08:17:30.000Z,9160
2022-11-26T08:18:47.000Z,15104
2022-11-26T08:20:03.000Z,15968
2022-11-26T08:21:18.000Z,19904
2022-11-26T08:22:33.000Z,17504
2022-11-26T08:23:49.000Z,11572
2022-11-26T08:25:06.000Z,12628
2022-11-26T08:26:22.000Z,11200
2022-11-26T08:27:38.000Z,11056
2022-11-26T08:28:54.000Z,9140
2022-11-26T08:30:10.000Z,8152
2022-11-26T08:31:27.000Z,9076
2022-11-26T08:32:43.000Z,6752
2022-11-26T08:35:15.000Z,6376
2022-11-26T08:36:31.000Z,5104
2022-11-26T08:37:48.000Z,6144
2022-11-26T08:39:03.000Z,5020
2022-11-26T08:40:19.000Z,5144
2022-11-26T08:41:35.000Z,4536
2022-11-26T08:44:08.000Z,4096
2022-11-26T08:45:23.000Z,4716
2022-11-26T08:46:38.000Z,4664
2022-11-26T08:47:54.000Z,5800
2022-11-26T08:49:10.000Z,6332
2022-11-26T08:50:27.000Z,6108
2022-11-26T08:52:59.000Z,6024
2022-11-26T08:54:15.000Z,10260
2022-11-26T08:55:31.000Z,5344
2022-11-26T08:56:48.000Z,9176
2022-11-26T08:58:04.000Z,7388
2022-11-26T08:59:20.000Z,7336
2022-11-26T09:00:36.000Z,9312
2022-11-26T09:01:52.000Z,8812
2022-11-26T09:03:08.000Z,9560
2022-11-26T09:04:24.000Z,7712
2022-11-26T09:05:40.000Z,8180
2022-11-26T09:06:56.000Z,13404
2022-11-26T09:08:12.000Z,14368
2022-11-26T09:09:29.000Z,8508
2022-11-26T09:10:45.000Z,10124
2022-11-26T09:13:17.000Z,10976
2022-11-26T09:14:32.000Z,7420
2022-11-26T09:15:48.000Z,7280
2022-11-26T09:17:03.000Z,6820
2022-11-26T09:18:18.000Z,5280
2022-11-26T09:19:34.000Z,4352
2022-11-26T09:20:50.000Z,4444
2022-11-26T09:22:07.000Z,4380
2022-11-26T09:24:39.000Z,3056
2022-11-26T09:25:55.000Z,5156
2022-11-26T09:27:11.000Z,4512
2022-11-26T09:28:28.000Z,3424
2022-11-26T09:29:44.000Z,5108
2022-11-26T09:31:00.000Z,5808
2022-11-26T09:32:16.000Z,6620
2022-11-26T09:33:32.000Z,5240
2022-11-26T09:36:04.000Z,7788
2022-11-26T09:38:35.000Z,7044
2022-11-26T09:39:50.000Z,8348
2022-11-26T09:41:06.000Z,21920
2022-11-26T09:42:22.000Z,12116
2022-11-26T09:43:38.000Z,26592
2022-11-26T09:44:54.000Z,18688
2022-11-26T09:46:10.000Z,15064
2022-11-26T09:47:27.000Z,19968
2022-11-26T09:48:43.000Z,11776
2022-11-26T09:49:59.000Z,12172
2022-11-26T09:51:15.000Z,13696
2022-11-26T09:52:31.000Z,23808
2022-11-26T09:53:47.000Z,10452
2022-11-26T09:55:02.000Z,18880
2022-11-26T09:56:18.000Z,8928
2022-11-26T09:57:34.000Z,14504
2022-11-26T09:58:50.000Z,12284
2022-11-26T10:00:07.000Z,13704
2022-11-26T10:01:23.000Z,12420
2022-11-26T10:02:39.000Z,15744
2022-11-26T10:03:55.000Z,11820
2022-11-26T10:05:11.000Z,16096
2022-11-26T10:06:28.000Z,8788
2022-11-26T10:07:43.000Z,8560
2022-11-26T10:10:14.000Z,10668
2022-11-26T10:11:30.000Z,9324
2022-11-26T10:12:47.000Z,10720
2022-11-26T10:14:03.000Z,6256
2022-11-26T10:16:35.000Z,6352
2022-11-26T10:17:51.000Z,6040
2022-11-26T10:19:07.000Z,9492
2022-11-26T10:20:24.000Z,9404
2022-11-26T10:21:40.000Z,9880
2022-11-26T10:22:56.000Z,10632
2022-11-26T10:24:12.000Z,15744
2022-11-26T10:25:27.000Z,12280
2022-11-26T10:26:44.000Z,14216
2022-11-26T10:28:00.000Z,18144
2022-11-26T10:29:16.000Z,21568
2022-11-26T10:30:32.000Z,18656
2022-11-26T10:31:48.000Z,18208
2022-11-26T10:33:05.000Z,17248
2022-11-26T10:34:21.000Z,14272
2022-11-26T10:35:37.000Z,13092
2022-11-26T10:36:52.000Z,13356
2022-11-26T10:38:07.000Z,13980
2022-11-26T10:39:23.000Z,14304
2022-11-26T10:41:54.000Z,11240
2022-11-26T10:43:10.000Z,8872
2022-11-26T10:44:27.000Z,8220
2022-11-26T10:45:43.000Z,8288
2022-11-26T10:46:59.000Z,8752
2022-11-26T10:48:15.000Z,8692
2022-11-26T10:49:31.000Z,8456
2022-11-26T10:50:47.000Z,8252
2022-11-26T10:52:04.000Z,7260
2022-11-26T10:54:36.000Z,7664
2022-11-26T10:55:52.000Z,8352
2022-11-26T10:57:07.000Z,8128
2022-11-26T10:58:24.000Z,7556
2022-11-26T10:59:40.000Z,7884
2022-11-26T11:00:56.000Z,6592
2022-11-26T11:02:12.000Z,7228
2022-11-26T11:03:28.000Z,6712
2022-11-26T11:04:45.000Z,6268
2022-11-26T11:06:01.000Z,5876
2022-11-26T11:07:17.000Z,5724
2022-11-26T11:08:32.000Z,6008
2022-11-26T11:09:47.000Z,5872
2022-11-26T11:11:03.000Z,6104
2022-11-26T11:12:18.000Z,5796
2022-11-26T11:13:34.000Z,5680
2022-11-26T11:14:50.000Z,5560
2022-11-26T11:16:06.000Z,5500
2022-11-26T11:17:23.000Z,5584
2022-11-26T11:18:39.000Z,5432
2022-11-26T11:19:55.000Z,5484
2022-11-26T11:21:11.000Z,5428
2022-11-26T11:22:27.000Z,5144
2022-11-26T11:23:44.000Z,5328
2022-11-26T11:25:00.000Z,5368
2022-11-26T11:26:16.000Z,5548
2022-11-26T11:27:32.000Z,5468
2022-11-26T11:28:47.000Z,5400
2022-11-26T11:30:04.000Z,5652
2022-11-26T11:32:36.000Z,5880
2022-11-26T11:33:52.000Z,6132
2022-11-26T11:35:08.000Z,6276
2022-11-26T11:36:25.000Z,5916
2022-11-26T11:37:41.000Z,5740
2022-11-26T11:38:56.000Z,5624
2022-11-26T11:40:11.000Z,5472
2022-11-26T11:41:26.000Z,5296
2022-11-26T11:42:42.000Z,5304
2022-11-26T11:45:14.000Z,5248
2022-11-26T11:46:30.000Z,5220
2022-11-26T11:47:46.000Z,5252
2022-11-26T11:49:03.000Z,5364
2022-11-26T11:50:19.000Z,5284
2022-11-26T11:51:35.000Z,5232
2022-11-26T11:52:51.000Z,5320
2022-11-26T11:54:07.000Z,5452
2022-11-26T11:55:24.000Z,5556
2022-11-26T11:56:40.000Z,5688
2022-11-26T11:57:56.000Z,5756
2022-11-26T11:59:11.000Z,5600
2022-11-26T12:00:27.000Z,5760
2022-11-26T12:01:44.000Z,5876
2022-11-26T12:03:00.000Z,5904
2022-11-26T12:04:16.000Z,6040
2022-11-26T12:05:31.000Z,6092
2022-11-26T12:06:47.000Z,5900
2022-11-26T12:08:04.000Z,5936
2022-11-26T12:09:20.000Z,5868
2022-11-26T12:10:35.000Z,5824
2022-11-26T12:11:51.000Z,5592
2022-11-26T12:13:06.000Z,5208
2022-11-26T12:14:22.000Z,5088
2022-11-26T12:15:38.000Z,4844
2022-11-26T12:16:54.000Z,4856
2022-11-26T12:18:10.000Z,4888
2022-11-26T12:19:26.000Z,4852
2022-11-26T12:20:43.000Z,4732
2022-11-26T12:23:15.000Z,4428
2022-11-26T12:24:31.000Z,4296
2022-11-26T12:25:47.000Z,4204
2022-11-26T12:27:04.000Z,4092
2022-11-26T12:28:20.000Z,4020
2022-11-26T12:30:52.000Z,3844
2022-11-26T12:32:07.000Z,3760
2022-11-26T12:33:23.000Z,3712
2022-11-26T12:35:55.000Z,3620
2022-11-26T12:37:11.000Z,3632
2022-11-26T12:38:27.000Z,3576
2022-11-26T12:39:44.000Z,3564
2022-11-26T12:41:00.000Z,3528
2022-11-26T12:42:16.000Z,3496
2022-11-26T12:43:32.000Z,3484
2022-11-26T12:44:48.000Z,3464
2022-11-26T12:46:05.000Z,3440
2022-11-26T12:47:21.000Z,3436
2022-11-26T12:48:37.000Z,3448
2022-11-26T12:49:52.000Z,3444
2022-11-26T12:51:08.000Z,3428
2022-11-26T12:52:25.000Z,3408
2022-11-26T12:53:41.000Z,3364
2022-11-26T12:54:57.000Z,3332
2022-11-26T12:56:13.000Z,3284
2022-11-26T12:57:29.000Z,3212
2022-11-26T12:58:46.000Z,3168
2022-11-26T13:01:17.000Z,3096
2022-11-26T13:02:32.000Z,3060
2022-11-26T13:03:47.000Z,3032
2022-11-26T13:05:03.000Z,3016
2022-11-26T13:06:18.000Z,3004
2022-11-26T13:07:34.000Z,2988
2022-11-26T13:08:50.000Z,2968
2022-11-26T13:10:06.000Z,2952
2022-11-26T13:11:23.000Z,2912
2022-11-26T13:13:55.000Z,2856
2022-11-26T13:15:11.000Z,2848
2022-11-26T13:16:27.000Z,2840
2022-11-26T13:17:44.000Z,2828
2022-11-26T13:19:00.000Z,2804
2022-11-26T13:20:16.000Z,2760
2022-11-26T13:21:32.000Z,2712
2022-11-26T13:22:47.000Z,2668
2022-11-26T13:24:04.000Z,2624
2022-11-26T13:26:36.000Z,2552
2022-11-26T13:27:51.000Z,2500
2022-11-26T13:29:06.000Z,2452
2022-11-26T13:30:23.000Z,2396
2022-11-26T13:31:39.000Z,2332
2022-11-26T13:34:11.000Z,2184
2022-11-26T13:35:27.000Z,2104
2022-11-26T13:36:44.000Z,2028
2022-11-26T13:38:00.000Z,1940
2022-11-26T13:39:16.000Z,1864
2022-11-26T13:40:32.000Z,1804
2022-11-26T13:41:48.000Z,1740
2022-11-26T13:43:05.000Z,1684
2022-11-26T13:44:21.000Z,1636
2022-11-26T13:45:36.000Z,1600
2022-11-26T13:46:52.000Z,1560
2022-11-26T13:48:08.000Z,1524
2022-11-26T13:49:25.000Z,1492
2022-11-26T13:51:57.000Z,1440
2022-11-26T13:53:12.000Z,1412
2022-11-26T13:54:27.000Z,1380
2022-11-26T13:55:44.000Z,1344
2022-11-26T13:57:00.000Z,1300
2022-11-26T13:58:16.000Z,1256
2022-11-26T13:59:32.000Z,1208
2022-11-26T14:00:48.000Z,1164
2022-11-26T14:02:05.000Z,1124
2022-11-26T14:04:37.000Z,1052
2022-11-26T14:05:53.000Z,1016
2022-11-26T14:07:09.000Z,976
2022-11-26T14:08:26.000Z,948
2022-11-26T14:09:42.000Z,924
2022-11-26T14:10:57.000Z,908
2022-11-26T14:12:13.000Z,888
2022-11-26T14:13:29.000Z,868
2022-11-26T14:14:46.000Z,848
2022-11-26T14:16:02.000Z,832
2022-11-26T14:18:34.000Z,780
2022-11-26T14:19:50.000Z,752
2022-11-26T14:21:07.000Z,724
2022-11-26T14:22:22.000Z,696
2022-11-26T14:23:37.000Z,672
2022-11-26T14:24:52.000Z,652
2022-11-26T14:26:07.000Z,632
2022-11-26T14:27:24.000Z,608
2022-11-26T14:28:40.000Z,580
2022-11-26T14:29:56.000Z,552
2022-11-26T14:31:12.000Z,528
2022-11-26T14:32:28.000Z,508
2022-11-26T14:33:45.000Z,488
2022-11-26T14:35:01.000Z,464
2022-11-26T14:36:17.000Z,444
2022-11-26T14:37:33.000Z,420
2022-11-26T14:38:48.000Z,396
2022-11-26T14:40:04.000Z,380
2022-11-26T14:41:20.000Z,364
2022-11-26T14:42:36.000Z,352
2022-11-26T14:43:52.000Z,340
2022-11-26T14:45:08.000Z,328
2022-11-26T14:46:25.000Z,316
2022-11-26T14:47:41.000Z,300
2022-11-26T14:48:57.000Z,288
2022-11-26T14:50:13.000Z,276
2022-11-26T14:51:29.000Z,260
2022-11-26T14:52:45.000Z,248
2022-11-26T14:55:16.000Z,220
2022-11-26T14:56:32.000Z,208
2022-11-26T14:57:48.000Z,196
2022-11-26T14:59:05.000Z,188
2022-11-26T15:00:21.000Z,176
2022-11-26T15:01:37.000Z,168
2022-11-26T15:02:53.000Z,152
2022-11-26T15:04:09.000Z,148
2022-11-26T15:05:26.000Z,140
2022-11-26T15:07:58.000Z,124
2022-11-26T15:09:14.000Z,116
2022-11-26T15:10:29.000Z,116
2022-11-26T15:11:46.000Z,108
2022-11-26T15:13:02.000Z,104
2022-11-26T15:14:18.000Z,100
2022-11-26T15:15:34.000Z,100
2022-11-26T15:16:50.000Z,96
2022-11-26T15:18:07.000Z,96
2022-11-26T15:19:23.000Z,92
2022-11-26T15:20:39.000Z,96
2022-11-26T15:21:55.000Z,96
2022-11-26T15:23:10.000Z,92
2022-11-26T15:24:26.000Z,84
2022-11-26T15:25:41.000Z,68
2022-11-26T15:26:56.000Z,60
2022-11-26T15:28:12.000Z,52
2022-11-26T15:29:28.000Z,44
2022-11-26T15:30:45.000Z,40
2022-11-26T15:33:17.000Z,36
2022-11-26T15:34:33.000Z,28
2022-11-26T15:35:49.000Z,24
2022-11-26T15:37:06.000Z,20
2022-11-26T15:38:22.000Z,20
2022-11-26T15:39:38.000Z,16
2022-11-26T15:40:54.000Z,12
2022-11-26T15:42:10.000Z,8
2022-11-26T15:43:26.000Z,8
2022-11-26T15:45:58.000Z,4
2022-11-26T15:47:13.000Z,4
2022-11-26T15:48:28.000Z,8
2022-11-26T15:49:45.000Z,4
2022-11-26T15:51:01.000Z,4
2022-11-26T15:52:17.000Z,4
2022-11-26T15:53:33.000Z,0
2022-11-26T15:54:49.000Z,0
2022-11-26T15:56:06.000Z,0
2022-11-26T15:57:22.000Z,0
2022-11-26T15:58:38.000Z,0
2022-11-26T15:59:54.000Z,0
2022-11-26T16:01:09.000Z,0
2022-11-26T16:02:25.000Z,0
2022-11-26T16:03:41.000Z,0
2022-11-26T16:04:57.000Z,0
2022-11-26T16:06:13.000Z,0
2022-11-26T16:07:29.000Z,0
2022-11-26T16:08:46.000Z,0
2022-11-26T16:10:02.000Z,0
2022-11-26T16:11:18.000Z,0
2022-11-26T16:12:34.000Z,0
2022-11-26T16:13:50.000Z,0
2022-11-26T16:15:07.000Z,0
2022-11-26T16:16:23.000Z,0
2022-11-26T16:17:39.000Z,0
2022-11-26T16:18:54.000Z,0
2022-11-26T16:20:09.000Z,0
2022-11-26T16:21:26.000Z,0
2022-11-26T16:22:42.000Z,0
2022-11-26T16:23:58.000Z,0
2022-11-26T16:26:30.000Z,0
2022-11-26T16:27:47.000Z,0
2022-11-26T16:29:02.000Z,0
2022-11-26T16:30:17.000Z,0
2022-11-26T16:31:32.000Z,0
2022-11-26T16:32:47.000Z,0
2022-11-26T16:34:04.000Z,0
2022-11-26T16:36:36.000Z,0
2022-11-26T16:37:52.000Z,0
2022-11-26T16:39:08.000Z,0
2022-11-26T16:40:25.000Z,0
2022-11-26T16:41:41.000Z,0
2022-11-26T16:42:57.000Z,0
2022-11-26T16:44:13.000Z,0
2022-11-26T16:45:29.000Z,0
2022-11-26T16:46:46.000Z,0
2022-11-26T16:49:18.000Z,0
2022-11-26T16:50:33.000Z,0
2022-11-26T16:51:48.000Z,0
2022-11-26T16:53:05.000Z,0
2022-11-26T16:54:21.000Z,0
2022-11-26T16:55:37.000Z,0
2022-11-26T16:56:53.000Z,0
2022-11-26T16:58:09.000Z,0
2022-11-26T16:59:26.000Z,0
2022-11-26T17:00:42.000Z,0
2022-11-26T17:01:58.000Z,0
2022-11-26T17:03:14.000Z,0
2022-11-26T17:04:29.000Z,0
2022-11-26T17:05:45.000Z,0
2022-11-26T17:07:01.000Z,0
2022-11-26T17:08:17.000Z,0
2022-11-26T17:09:33.000Z,0
2022-11-26T17:10:49.000Z,0
2022-11-26T17:12:06.000Z,0
2022-11-26T17:14:38.000Z,0
2022-11-26T17:15:54.000Z,0
2022-11-26T17:17:10.000Z,0
2022-11-26T17:18:26.000Z,0
2022-11-26T17:19:43.000Z,0
2022-11-26T17:20:59.000Z,0
2022-11-26T17:22:14.000Z,0
2022-11-26T17:23:30.000Z,0
2022-11-26T17:24:46.000Z,0
2022-11-26T17:27:19.000Z,0
2022-11-26T17:28:34.000Z,0
2022-11-26T17:29:49.000Z,0
2022-11-26T17:31:06.000Z,0
2022-11-26T17:32:22.000Z,0
2022-11-26T17:33:38.000Z,0
2022-11-26T17:34:54.000Z,0
2022-11-26T17:36:10.000Z,0
2022-11-26T17:37:26.000Z,0
2022-11-26T17:38:43.000Z,0
2022-11-26T17:39:59.000Z,0
2022-11-26T17:41:15.000Z,0
2022-11-26T17:42:30.000Z,0
2022-11-26T17:43:46.000Z,0
2022-11-26T17:45:02.000Z,0
2022-11-26T17:46:18.000Z,0
2022-11-26T17:47:34.000Z,0
2022-11-26T17:48:50.000Z,0
2022-11-26T17:50:06.000Z,0
2022-11-26T17:52:39.000Z,0
2022-11-26T17:53:55.000Z,0
2022-11-26T17:55:11.000Z,0
2022-11-26T17:56:27.000Z,0
2022-11-26T17:57:44.000Z,0
2022-11-26T17:59:00.000Z,0
2022-11-26T18:00:15.000Z,0
2022-11-26T18:01:31.000Z,0
2022-11-26T18:02:47.000Z,0
2022-11-26T18:04:04.000Z,0
2022-11-26T18:05:20.000Z,0
2022-11-26T18:06:36.000Z,0
2022-11-26T18:07:52.000Z,0
2022-11-26T18:09:08.000Z,0
2022-11-26T18:10:24.000Z,0
2022-11-26T18:11:39.000Z,0
2022-11-26T18:12:54.000Z,0
2022-11-26T18:14:09.000Z,0
2022-11-26T18:15:25.000Z,0
2022-11-26T18:17:58.000Z,0
2022-11-26T18:19:14.000Z,0
2022-11-26T18:20:30.000Z,0
2022-11-26T18:21:46.000Z,0
2022-11-26T18:23:03.000Z,0
2022-11-26T18:24:19.000Z,0
2022-11-26T18:25:35.000Z,0
2022-11-26T18:26:51.000Z,0
2022-11-26T18:28:07.000Z,0
2022-11-26T18:30:40.000Z,0
2022-11-26T18:31:55.000Z,0
2022-11-26T18:33:10.000Z,0
2022-11-26T18:34:26.000Z,0
2022-11-26T18:35:43.000Z,0
2022-11-26T18:36:59.000Z,0
2022-11-26T18:38:15.000Z,0
2022-11-26T18:39:31.000Z,0
2022-11-26T18:40:47.000Z,0
2022-11-26T18:42:04.000Z,0
2022-11-26T18:43:20.000Z,0
2022-11-26T18:44:36.000Z,0
2022-11-26T18:45:51.000Z,0
2022-11-26T18:48:23.000Z,0
2022-11-26T18:49:39.000Z,0
2022-11-26T18:50:55.000Z,0
2022-11-26T18:52:11.000Z,0
2022-11-26T18:53:27.000Z,0
2022-11-26T18:56:00.000Z,0
2022-11-26T18:57:16.000Z,0
2022-11-26T18:58:32.000Z,0
2022-11-26T18:59:48.000Z,0
2022-11-26T19:01:05.000Z,0
2022-11-26T19:02:21.000Z,0
2022-11-26T19:03:37.000Z,0
2022-11-26T19:04:53.000Z,0
2022-11-26T19:06:09.000Z,0
2022-11-26T19:08:42.000Z,0
2022-11-26T19:09:57.000Z,0
2022-11-26T19:11:12.000Z,0
2022-11-26T19:12:28.000Z,0
2022-11-26T19:13:45.000Z,0
2022-11-26T19:15:01.000Z,0
2022-11-26T19:16:17.000Z,0